sensor_id;sensor_type;location;lat;lon;timestamp;pressure;altitude;pressure_sealevel;temperature;humidity
62592;BME280;48659;41.622;2.276;2022-07-09T00:01:00;100468.04;;;23.70;41.15
62592;BME280;48659;41.622;2.276;2022-07-09T00:03:27;100463.60;;;23.82;40.62
62592;BME280;48659;41.622;2.276;2022-07-09T00:05:56;100465.44;;;24.21;40.33
62592;BME280;48659;41.622;2.276;2022-07-09T00:08:23;100468.78;;;22.27;43.74
62592;BME280;48659;41.622;2.276;2022-07-09T00:10:51;100469.14;;;22.01;44.71
62592;BME280;48659;41.622;2.276;2022-07-09T00:13:17;100467.98;;;21.48;46.55
62592;BME280;48659;41.622;2.276;2022-07-09T00:15:45;100466.95;;;21.50;46.60
62592;BME280;48659;41.622;2.276;2022-07-09T00:18:18;100469.67;;;21.67;45.44
62592;BME280;48659;41.622;2.276;2022-07-09T00:20:45;100466.40;;;22.54;43.60
62592;BME280;48659;41.622;2.276;2022-07-09T00:23:12;100463.86;;;23.18;42.11
62592;BME280;48659;41.622;2.276;2022-07-09T00:25:40;100464.14;;;23.02;42.76
62592;BME280;48659;41.622;2.276;2022-07-09T00:28:07;100464.12;;;22.65;42.87
62592;BME280;48659;41.622;2.276;2022-07-09T00:30:35;100460.95;;;23.33;42.12
62592;BME280;48659;41.622;2.276;2022-07-09T00:33:02;100461.93;;;23.56;41.34
62592;BME280;48659;41.622;2.276;2022-07-09T00:35:29;100467.84;;;21.26;45.39
62592;BME280;48659;41.622;2.276;2022-07-09T00:37:57;100467.46;;;21.66;45.24
62592;BME280;48659;41.622;2.276;2022-07-09T00:40:24;100464.52;;;22.61;43.85
62592;BME280;48659;41.622;2.276;2022-07-09T00:42:54;100472.54;;;22.12;44.49
62592;BME280;48659;41.622;2.276;2022-07-09T00:45:21;100465.53;;;23.13;42.58
62592;BME280;48659;41.622;2.276;2022-07-09T00:47:49;100461.59;;;22.93;42.32
62592;BME280;48659;41.622;2.276;2022-07-09T00:50:16;100468.74;;;22.10;44.05
62592;BME280;48659;41.622;2.276;2022-07-09T00:52:44;100458.91;;;23.16;42.05
62592;BME280;48659;41.622;2.276;2022-07-09T00:55:11;100461.39;;;22.24;43.21
62592;BME280;48659;41.622;2.276;2022-07-09T00:57:39;100461.24;;;22.85;42.44
62592;BME280;48659;41.622;2.276;2022-07-09T01:00:08;100456.70;;;22.41;41.85
62592;BME280;48659;41.622;2.276;2022-07-09T01:02:35;100451.66;;;24.01;40.17
62592;BME280;48659;41.622;2.276;2022-07-09T01:05:03;100456.18;;;21.99;44.23
62592;BME280;48659;41.622;2.276;2022-07-09T01:07:30;100448.91;;;22.80;42.50
62592;BME280;48659;41.622;2.276;2022-07-09T01:09:58;100448.02;;;23.11;41.23
62592;BME280;48659;41.622;2.276;2022-07-09T01:12:25;100451.35;;;23.11;41.92
62592;BME280;48659;41.622;2.276;2022-07-09T01:14:53;100450.83;;;23.98;40.64
62592;BME280;48659;41.622;2.276;2022-07-09T01:17:21;100449.96;;;23.70;40.69
62592;BME280;48659;41.622;2.276;2022-07-09T01:19:48;100449.56;;;24.21;40.28
62592;BME280;48659;41.622;2.276;2022-07-09T01:22:15;100451.78;;;24.29;39.40
62592;BME280;48659;41.622;2.276;2022-07-09T01:24:43;100445.56;;;23.57;41.18
62592;BME280;48659;41.622;2.276;2022-07-09T01:27:10;100447.88;;;24.39;39.90
62592;BME280;48659;41.622;2.276;2022-07-09T01:29:38;100443.97;;;24.55;38.95
62592;BME280;48659;41.622;2.276;2022-07-09T01:32:06;100446.85;;;22.71;41.50
62592;BME280;48659;41.622;2.276;2022-07-09T01:34:33;100457.27;;;21.71;44.77
62592;BME280;48659;41.622;2.276;2022-07-09T01:37:04;100450.92;;;23.53;41.07
62592;BME280;48659;41.622;2.276;2022-07-09T01:39:31;100452.53;;;21.15;45.63
62592;BME280;48659;41.622;2.276;2022-07-09T01:41:58;100449.29;;;20.25;47.17
62592;BME280;48659;41.622;2.276;2022-07-09T01:44:25;100453.77;;;22.04;44.38
62592;BME280;48659;41.622;2.276;2022-07-09T01:46:54;100445.68;;;23.38;42.07
62592;BME280;48659;41.622;2.276;2022-07-09T01:49:21;100444.56;;;23.94;40.46
62592;BME280;48659;41.622;2.276;2022-07-09T01:51:48;100443.05;;;23.72;40.28
62592;BME280;48659;41.622;2.276;2022-07-09T01:54:15;100442.37;;;23.46;40.72
62592;BME280;48659;41.622;2.276;2022-07-09T01:56:43;100452.48;;;21.86;43.99
62592;BME280;48659;41.622;2.276;2022-07-09T01:59:10;100451.35;;;21.66;44.83
62592;BME280;48659;41.622;2.276;2022-07-09T02:01:37;100448.33;;;21.54;45.14
62592;BME280;48659;41.622;2.276;2022-07-09T02:04:04;100443.76;;;21.05;46.00
62592;BME280;48659;41.622;2.276;2022-07-09T02:06:31;100445.01;;;20.17;48.45
62592;BME280;48659;41.622;2.276;2022-07-09T02:08:58;100446.57;;;19.64;49.66
62592;BME280;48659;41.622;2.276;2022-07-09T02:11:25;100443.76;;;19.30;51.34
62592;BME280;48659;41.622;2.276;2022-07-09T02:13:54;100446.37;;;19.05;52.94
62592;BME280;48659;41.622;2.276;2022-07-09T02:16:21;100444.61;;;19.82;50.09
62592;BME280;48659;41.622;2.276;2022-07-09T02:18:48;100443.64;;;22.19;45.44
62592;BME280;48659;41.622;2.276;2022-07-09T02:21:15;100437.25;;;22.62;43.69
62592;BME280;48659;41.622;2.276;2022-07-09T02:23:43;100436.20;;;21.04;46.21
62592;BME280;48659;41.622;2.276;2022-07-09T02:26:11;100438.49;;;21.85;44.89
62592;BME280;48659;41.622;2.276;2022-07-09T02:28:38;100428.79;;;20.92;46.40
62592;BME280;48659;41.622;2.276;2022-07-09T02:31:06;100431.55;;;21.30;45.74
62592;BME280;48659;41.622;2.276;2022-07-09T02:33:33;100425.65;;;22.68;43.53
62592;BME280;48659;41.622;2.276;2022-07-09T02:36:00;100422.78;;;22.03;43.38
62592;BME280;48659;41.622;2.276;2022-07-09T02:38:27;100425.87;;;21.09;45.93
62592;BME280;48659;41.622;2.276;2022-07-09T02:40:55;100421.83;;;22.51;43.77
62592;BME280;48659;41.622;2.276;2022-07-09T02:43:22;100424.89;;;21.40;45.39
62592;BME280;48659;41.622;2.276;2022-07-09T02:45:49;100417.61;;;22.92;42.98
62592;BME280;48659;41.622;2.276;2022-07-09T02:48:16;100419.11;;;22.60;43.27
62592;BME280;48659;41.622;2.276;2022-07-09T02:50:43;100416.22;;;23.44;42.22
62592;BME280;48659;41.622;2.276;2022-07-09T02:53:10;100422.96;;;21.20;45.80
62592;BME280;48659;41.622;2.276;2022-07-09T02:55:37;100421.62;;;20.94;46.89
62592;BME280;48659;41.622;2.276;2022-07-09T02:58:04;100421.19;;;22.47;43.77
62592;BME280;48659;41.622;2.276;2022-07-09T03:00:31;100420.69;;;21.97;44.14
62592;BME280;48659;41.622;2.276;2022-07-09T03:03:00;100419.28;;;23.22;42.21
62592;BME280;48659;41.622;2.276;2022-07-09T03:05:27;100421.80;;;22.68;43.24
62592;BME280;48659;41.622;2.276;2022-07-09T03:07:54;100419.19;;;23.21;42.11
62592;BME280;48659;41.622;2.276;2022-07-09T03:10:21;100423.57;;;21.57;44.98
62592;BME280;48659;41.622;2.276;2022-07-09T03:12:49;100424.27;;;22.04;44.49
62592;BME280;48659;41.622;2.276;2022-07-09T03:15:16;100421.51;;;21.11;45.95
62592;BME280;48659;41.622;2.276;2022-07-09T03:17:43;100418.74;;;21.07;46.41
62592;BME280;48659;41.622;2.276;2022-07-09T03:20:11;100422.41;;;21.63;45.09
62592;BME280;48659;41.622;2.276;2022-07-09T03:22:39;100417.61;;;22.32;43.87
62592;BME280;48659;41.622;2.276;2022-07-09T03:25:08;100414.58;;;21.95;44.15
62592;BME280;48659;41.622;2.276;2022-07-09T03:27:35;100414.09;;;22.21;44.04
62592;BME280;48659;41.622;2.276;2022-07-09T03:30:04;100414.18;;;21.43;44.83
62592;BME280;48659;41.622;2.276;2022-07-09T03:32:31;100409.04;;;22.83;43.10
62592;BME280;48659;41.622;2.276;2022-07-09T03:34:59;100411.69;;;20.39;46.52
62592;BME280;48659;41.622;2.276;2022-07-09T03:37:26;100410.98;;;21.19;46.77
62592;BME280;48659;41.622;2.276;2022-07-09T03:39:54;100408.70;;;22.53;43.50
62592;BME280;48659;41.622;2.276;2022-07-09T03:42:21;100405.82;;;23.08;42.45
62592;BME280;48659;41.622;2.276;2022-07-09T03:44:48;100417.12;;;21.50;44.98
62592;BME280;48659;41.622;2.276;2022-07-09T03:47:16;100419.69;;;21.12;45.05
62592;BME280;48659;41.622;2.276;2022-07-09T03:49:43;100411.88;;;23.31;42.33
62592;BME280;48659;41.622;2.276;2022-07-09T03:52:11;100415.84;;;22.14;44.09
62592;BME280;48659;41.622;2.276;2022-07-09T03:54:38;100417.13;;;20.93;47.12
62592;BME280;48659;41.622;2.276;2022-07-09T03:57:06;100418.71;;;20.89;44.77
62592;BME280;48659;41.622;2.276;2022-07-09T03:59:34;100412.29;;;22.24;43.89
62592;BME280;48659;41.622;2.276;2022-07-09T04:02:02;100414.14;;;21.05;45.37
62592;BME280;48659;41.622;2.276;2022-07-09T04:04:30;100413.85;;;22.20;44.05
62592;BME280;48659;41.622;2.276;2022-07-09T04:06:58;100414.48;;;22.10;43.73
62592;BME280;48659;41.622;2.276;2022-07-09T04:09:25;100407.75;;;22.68;42.76
62592;BME280;48659;41.622;2.276;2022-07-09T04:11:53;100409.80;;;22.51;43.02
62592;BME280;48659;41.622;2.276;2022-07-09T04:14:21;100407.66;;;22.80;43.04
62592;BME280;48659;41.622;2.276;2022-07-09T04:16:48;100401.24;;;22.94;42.33
62592;BME280;48659;41.622;2.276;2022-07-09T04:19:15;100405.50;;;21.50;43.86
62592;BME280;48659;41.622;2.276;2022-07-09T04:21:41;100402.78;;;22.89;42.41
62592;BME280;48659;41.622;2.276;2022-07-09T04:24:08;100403.10;;;23.20;42.05
62592;BME280;48659;41.622;2.276;2022-07-09T04:26:36;100404.12;;;23.57;41.37
62592;BME280;48659;41.622;2.276;2022-07-09T04:29:04;100401.03;;;23.04;41.76
62592;BME280;48659;41.622;2.276;2022-07-09T04:31:31;100399.25;;;23.01;42.62
62592;BME280;48659;41.622;2.276;2022-07-09T04:33:58;100405.61;;;22.02;43.57
62592;BME280;48659;41.622;2.276;2022-07-09T04:36:26;100408.34;;;21.23;44.81
62592;BME280;48659;41.622;2.276;2022-07-09T04:38:54;100404.95;;;22.11;44.35
62592;BME280;48659;41.622;2.276;2022-07-09T04:41:21;100399.78;;;23.29;42.12
62592;BME280;48659;41.622;2.276;2022-07-09T04:43:48;100397.73;;;22.79;42.71
62592;BME280;48659;41.622;2.276;2022-07-09T04:46:16;100400.72;;;21.89;44.70
62592;BME280;48659;41.622;2.276;2022-07-09T04:48:44;100404.46;;;20.66;47.63
62592;BME280;48659;41.622;2.276;2022-07-09T04:51:12;100406.76;;;20.78;47.27
62592;BME280;48659;41.622;2.276;2022-07-09T04:53:39;100409.05;;;21.62;45.54
62592;BME280;48659;41.622;2.276;2022-07-09T04:56:07;100404.75;;;22.30;44.38
62592;BME280;48659;41.622;2.276;2022-07-09T04:58:34;100401.23;;;23.11;42.95
62592;BME280;48659;41.622;2.276;2022-07-09T05:01:01;100404.99;;;22.95;42.46
62592;BME280;48659;41.622;2.276;2022-07-09T05:03:29;100404.72;;;23.58;42.10
62592;BME280;48659;41.622;2.276;2022-07-09T05:05:56;100403.57;;;24.07;40.87
62592;BME280;48659;41.622;2.276;2022-07-09T05:08:23;100405.73;;;23.57;40.53
62592;BME280;48659;41.622;2.276;2022-07-09T05:10:51;100406.36;;;23.32;41.18
62592;BME280;48659;41.622;2.276;2022-07-09T05:13:18;100407.63;;;24.07;40.08
62592;BME280;48659;41.622;2.276;2022-07-09T05:15:46;100408.48;;;24.31;40.34
62592;BME280;48659;41.622;2.276;2022-07-09T05:18:12;100412.21;;;23.70;40.54
62592;BME280;48659;41.622;2.276;2022-07-09T05:20:39;100406.32;;;24.53;38.84
62592;BME280;48659;41.622;2.276;2022-07-09T05:23:06;100406.14;;;25.68;37.23
62592;BME280;48659;41.622;2.276;2022-07-09T05:25:34;100401.53;;;26.91;35.08
62592;BME280;48659;41.622;2.276;2022-07-09T05:28:01;100396.25;;;27.02;34.32
62592;BME280;48659;41.622;2.276;2022-07-09T05:30:29;100397.35;;;27.42;33.89
62592;BME280;48659;41.622;2.276;2022-07-09T05:32:56;100397.23;;;27.57;33.49
62592;BME280;48659;41.622;2.276;2022-07-09T05:35:23;100398.04;;;27.45;33.71
62592;BME280;48659;41.622;2.276;2022-07-09T05:37:51;100393.44;;;28.06;32.85
62592;BME280;48659;41.622;2.276;2022-07-09T05:40:18;100394.88;;;28.46;32.11
62592;BME280;48659;41.622;2.276;2022-07-09T05:42:45;100390.20;;;28.37;32.19
62592;BME280;48659;41.622;2.276;2022-07-09T05:45:13;100391.55;;;27.82;32.03
62592;BME280;48659;41.622;2.276;2022-07-09T05:47:41;100395.05;;;28.40;32.02
62592;BME280;48659;41.622;2.276;2022-07-09T05:50:08;100399.29;;;25.87;34.02
62592;BME280;48659;41.622;2.276;2022-07-09T05:52:36;100399.36;;;27.70;33.33
62592;BME280;48659;41.622;2.276;2022-07-09T05:55:05;100404.84;;;26.86;34.27
62592;BME280;48659;41.622;2.276;2022-07-09T05:57:33;100397.78;;;27.75;33.12
62592;BME280;48659;41.622;2.276;2022-07-09T06:00:00;100398.13;;;28.71;31.93
62592;BME280;48659;41.622;2.276;2022-07-09T06:02:28;100398.34;;;28.27;32.23
62592;BME280;48659;41.622;2.276;2022-07-09T06:04:56;100400.80;;;28.59;31.80
62592;BME280;48659;41.622;2.276;2022-07-09T06:07:24;100399.59;;;28.30;31.94
62592;BME280;48659;41.622;2.276;2022-07-09T06:09:51;100398.78;;;28.67;31.83
62592;BME280;48659;41.622;2.276;2022-07-09T06:12:18;100399.93;;;28.14;32.26
62592;BME280;48659;41.622;2.276;2022-07-09T06:14:45;100404.00;;;28.44;32.31
62592;BME280;48659;41.622;2.276;2022-07-09T06:17:12;100406.85;;;27.46;33.48
62592;BME280;48659;41.622;2.276;2022-07-09T06:19:39;100409.35;;;28.21;32.51
62592;BME280;48659;41.622;2.276;2022-07-09T06:22:07;100411.89;;;28.82;31.98
62592;BME280;48659;41.622;2.276;2022-07-09T06:24:34;100414.13;;;28.73;31.50
62592;BME280;48659;41.622;2.276;2022-07-09T06:27:03;100415.66;;;28.14;31.78
62592;BME280;48659;41.622;2.276;2022-07-09T06:29:30;100416.42;;;28.39;32.03
62592;BME280;48659;41.622;2.276;2022-07-09T06:31:57;100407.58;;;28.96;31.18
62592;BME280;48659;41.622;2.276;2022-07-09T06:34:25;100410.79;;;28.91;31.37
62592;BME280;48659;41.622;2.276;2022-07-09T06:36:53;100409.29;;;28.70;31.37
62592;BME280;48659;41.622;2.276;2022-07-09T06:39:20;100412.39;;;29.36;30.86
62592;BME280;48659;41.622;2.276;2022-07-09T06:41:47;100410.72;;;29.45;30.77
62592;BME280;48659;41.622;2.276;2022-07-09T06:44:14;100411.30;;;29.11;30.98
62592;BME280;48659;41.622;2.276;2022-07-09T06:46:42;100408.23;;;29.91;30.02
62592;BME280;48659;41.622;2.276;2022-07-09T06:49:09;100406.94;;;29.92;30.00
62592;BME280;48659;41.622;2.276;2022-07-09T06:51:36;100408.71;;;29.37;30.24
62592;BME280;48659;41.622;2.276;2022-07-09T06:54:04;100410.55;;;29.45;29.87
62592;BME280;48659;41.622;2.276;2022-07-09T06:56:31;100414.24;;;29.20;31.01
62592;BME280;48659;41.622;2.276;2022-07-09T06:58:59;100415.62;;;29.45;29.86
62592;BME280;48659;41.622;2.276;2022-07-09T07:01:26;100415.38;;;30.83;29.16
62592;BME280;48659;41.622;2.276;2022-07-09T07:03:53;100415.23;;;30.27;29.12
62592;BME280;48659;41.622;2.276;2022-07-09T07:06:21;100413.94;;;30.58;28.88
62592;BME280;48659;41.622;2.276;2022-07-09T07:08:48;100411.63;;;30.84;28.71
62592;BME280;48659;41.622;2.276;2022-07-09T07:11:15;100412.76;;;30.14;29.23
62592;BME280;48659;41.622;2.276;2022-07-09T07:13:43;100409.62;;;29.34;30.52
62592;BME280;48659;41.622;2.276;2022-07-09T07:16:10;100408.90;;;30.39;28.82
62592;BME280;48659;41.622;2.276;2022-07-09T07:18:37;100408.94;;;30.91;28.30
62592;BME280;48659;41.622;2.276;2022-07-09T07:21:04;100409.16;;;30.93;27.68
62592;BME280;48659;41.622;2.276;2022-07-09T07:23:31;100410.85;;;28.80;30.17
62592;BME280;48659;41.622;2.276;2022-07-09T07:25:58;100412.03;;;28.68;30.20
62592;BME280;48659;41.622;2.276;2022-07-09T07:28:26;100418.05;;;26.08;34.51
62592;BME280;48659;41.622;2.276;2022-07-09T07:30:55;100411.18;;;28.09;31.92
62592;BME280;48659;41.622;2.276;2022-07-09T07:33:23;100413.81;;;27.97;31.51
62592;BME280;48659;41.622;2.276;2022-07-09T07:35:50;100409.77;;;29.46;29.92
62592;BME280;48659;41.622;2.276;2022-07-09T07:38:18;100408.89;;;30.31;28.41
62592;BME280;48659;41.622;2.276;2022-07-09T07:40:45;100406.17;;;30.59;28.19
62592;BME280;48659;41.622;2.276;2022-07-09T07:43:12;100402.72;;;29.71;28.92
62592;BME280;48659;41.622;2.276;2022-07-09T07:45:39;100403.36;;;30.82;27.98
62592;BME280;48659;41.622;2.276;2022-07-09T07:48:07;100402.83;;;31.08;27.27
62592;BME280;48659;41.622;2.276;2022-07-09T07:50:35;100402.33;;;30.29;27.43
62592;BME280;48659;41.622;2.276;2022-07-09T07:53:02;100398.54;;;29.38;28.22
62592;BME280;48659;41.622;2.276;2022-07-09T07:55:29;100399.03;;;28.87;28.30
62592;BME280;48659;41.622;2.276;2022-07-09T07:57:56;100393.45;;;29.95;27.43
62592;BME280;48659;41.622;2.276;2022-07-09T08:00:24;100391.34;;;29.93;27.33
62592;BME280;48659;41.622;2.276;2022-07-09T08:02:52;100394.32;;;27.98;30.48
62592;BME280;48659;41.622;2.276;2022-07-09T08:05:19;100394.57;;;28.57;30.74
62592;BME280;48659;41.622;2.276;2022-07-09T08:07:46;100387.54;;;29.76;28.57
62592;BME280;48659;41.622;2.276;2022-07-09T08:10:14;100389.92;;;28.37;28.71
62592;BME280;48659;41.622;2.276;2022-07-09T08:12:41;100389.75;;;29.52;27.92
62592;BME280;48659;41.622;2.276;2022-07-09T08:15:09;100386.23;;;29.10;28.66
62592;BME280;48659;41.622;2.276;2022-07-09T08:17:36;100387.10;;;29.36;28.36
62592;BME280;48659;41.622;2.276;2022-07-09T08:20:05;100387.76;;;30.12;26.91
62592;BME280;48659;41.622;2.276;2022-07-09T08:22:32;100389.80;;;30.20;27.07
62592;BME280;48659;41.622;2.276;2022-07-09T08:24:59;100388.62;;;29.25;27.67
62592;BME280;48659;41.622;2.276;2022-07-09T08:27:27;100389.85;;;29.83;26.76
62592;BME280;48659;41.622;2.276;2022-07-09T08:29:55;100387.67;;;29.99;26.96
62592;BME280;48659;41.622;2.276;2022-07-09T08:32:22;100385.17;;;29.85;27.33
62592;BME280;48659;41.622;2.276;2022-07-09T08:34:49;100383.16;;;30.33;26.77
62592;BME280;48659;41.622;2.276;2022-07-09T08:37:17;100380.92;;;30.57;25.95
62592;BME280;48659;41.622;2.276;2022-07-09T08:39:44;100380.30;;;31.82;25.68
62592;BME280;48659;41.622;2.276;2022-07-09T08:42:11;100382.74;;;30.42;26.95
62592;BME280;48659;41.622;2.276;2022-07-09T08:44:40;100381.53;;;29.62;27.70
62592;BME280;48659;41.622;2.276;2022-07-09T08:47:11;100381.08;;;28.71;28.69
62592;BME280;48659;41.622;2.276;2022-07-09T08:49:41;100374.68;;;29.31;28.59
62592;BME280;48659;41.622;2.276;2022-07-09T08:52:10;100373.83;;;28.79;28.88
62592;BME280;48659;41.622;2.276;2022-07-09T08:54:38;100374.73;;;29.99;27.60
62592;BME280;48659;41.622;2.276;2022-07-09T08:57:07;100374.43;;;29.08;28.37
62592;BME280;48659;41.622;2.276;2022-07-09T08:59:34;100373.71;;;28.62;29.60
62592;BME280;48659;41.622;2.276;2022-07-09T09:02:04;100372.25;;;29.09;28.51
62592;BME280;48659;41.622;2.276;2022-07-09T09:04:32;100366.92;;;29.05;28.72
62592;BME280;48659;41.622;2.276;2022-07-09T09:07:00;100367.94;;;27.90;29.49
62592;BME280;48659;41.622;2.276;2022-07-09T09:09:38;100369.48;;;28.88;29.03
62592;BME280;48659;41.622;2.276;2022-07-09T09:12:06;100368.76;;;28.48;29.06
62592;BME280;48659;41.622;2.276;2022-07-09T09:14:34;100368.54;;;27.98;30.27
62592;BME280;48659;41.622;2.276;2022-07-09T09:17:04;100364.28;;;29.75;27.92
62592;BME280;48659;41.622;2.276;2022-07-09T09:19:32;100363.61;;;29.11;28.91
62592;BME280;48659;41.622;2.276;2022-07-09T09:22:00;100364.63;;;29.76;28.43
62592;BME280;48659;41.622;2.276;2022-07-09T09:24:27;100363.06;;;30.19;27.83
62592;BME280;48659;41.622;2.276;2022-07-09T09:26:57;100361.29;;;29.50;28.80
62592;BME280;48659;41.622;2.276;2022-07-09T09:29:25;100362.04;;;31.00;26.67
62592;BME280;48659;41.622;2.276;2022-07-09T09:31:53;100361.35;;;28.46;30.40
62592;BME280;48659;41.622;2.276;2022-07-09T09:34:21;100363.54;;;28.12;30.66
62592;BME280;48659;41.622;2.276;2022-07-09T09:36:50;100360.36;;;29.18;29.10
62592;BME280;48659;41.622;2.276;2022-07-09T09:39:19;100366.24;;;29.81;27.18
62592;BME280;48659;41.622;2.276;2022-07-09T09:41:48;100368.97;;;30.32;27.02
62592;BME280;48659;41.622;2.276;2022-07-09T09:44:18;100362.32;;;28.50;29.32
62592;BME280;48659;41.622;2.276;2022-07-09T09:46:47;100359.79;;;30.56;27.19
62592;BME280;48659;41.622;2.276;2022-07-09T09:49:15;100355.42;;;31.10;26.01
62592;BME280;48659;41.622;2.276;2022-07-09T09:51:48;100352.27;;;30.50;26.86
62592;BME280;48659;41.622;2.276;2022-07-09T09:54:18;100358.04;;;30.37;26.86
62592;BME280;48659;41.622;2.276;2022-07-09T09:56:46;100348.18;;;29.53;27.59
62592;BME280;48659;41.622;2.276;2022-07-09T09:59:16;100348.07;;;30.18;26.47
62592;BME280;48659;41.622;2.276;2022-07-09T10:01:44;100350.67;;;30.90;26.62
62592;BME280;48659;41.622;2.276;2022-07-09T10:04:13;100352.27;;;29.38;29.66
62592;BME280;48659;41.622;2.276;2022-07-09T10:06:41;100343.99;;;28.82;30.59
62592;BME280;48659;41.622;2.276;2022-07-09T10:09:12;100347.06;;;29.72;29.92
62592;BME280;48659;41.622;2.276;2022-07-09T10:11:41;100340.77;;;29.92;29.79
62592;BME280;48659;41.622;2.276;2022-07-09T10:14:15;100340.85;;;29.99;29.79
62592;BME280;48659;41.622;2.276;2022-07-09T10:16:43;100347.36;;;29.98;30.33
62592;BME280;48659;41.622;2.276;2022-07-09T10:19:20;100347.26;;;30.29;29.42
62592;BME280;48659;41.622;2.276;2022-07-09T10:21:51;100344.26;;;30.71;29.40
62592;BME280;48659;41.622;2.276;2022-07-09T10:24:24;100344.51;;;30.99;29.82
62592;BME280;48659;41.622;2.276;2022-07-09T10:27:01;100344.34;;;29.08;32.61
62592;BME280;48659;41.622;2.276;2022-07-09T10:29:28;100347.30;;;29.61;31.26
62592;BME280;48659;41.622;2.276;2022-07-09T10:31:57;100344.16;;;29.67;30.78
62592;BME280;48659;41.622;2.276;2022-07-09T10:34:59;100342.57;;;29.23;30.96
62592;BME280;48659;41.622;2.276;2022-07-09T10:37:35;100341.81;;;28.95;31.30
62592;BME280;48659;41.622;2.276;2022-07-09T10:40:09;100349.38;;;27.77;32.22
62592;BME280;48659;41.622;2.276;2022-07-09T10:42:38;100352.48;;;28.46;32.60
62592;BME280;48659;41.622;2.276;2022-07-09T10:45:20;100354.46;;;28.53;31.81
62592;BME280;48659;41.622;2.276;2022-07-09T10:47:52;100349.76;;;28.99;31.05
62592;BME280;48659;41.622;2.276;2022-07-09T10:50:20;100344.80;;;30.01;29.87
62592;BME280;48659;41.622;2.276;2022-07-09T10:52:49;100347.38;;;29.45;30.42
62592;BME280;48659;41.622;2.276;2022-07-09T10:55:17;100349.30;;;28.48;32.33
62592;BME280;48659;41.622;2.276;2022-07-09T10:57:45;100356.17;;;27.90;34.09
62592;BME280;48659;41.622;2.276;2022-07-09T11:00:15;100357.79;;;28.30;32.68
62592;BME280;48659;41.622;2.276;2022-07-09T11:03:00;100357.17;;;27.64;33.83
62592;BME280;48659;41.622;2.276;2022-07-09T11:05:28;100353.45;;;28.66;32.59
62592;BME280;48659;41.622;2.276;2022-07-09T11:08:05;100351.36;;;28.37;32.52
62592;BME280;48659;41.622;2.276;2022-07-09T11:10:36;100356.89;;;28.22;34.18
62592;BME280;48659;41.622;2.276;2022-07-09T11:13:05;100347.23;;;28.96;32.85
62592;BME280;48659;41.622;2.276;2022-07-09T11:15:34;100351.15;;;27.99;34.76
62592;BME280;48659;41.622;2.276;2022-07-09T11:18:04;100349.89;;;28.00;34.22
62592;BME280;48659;41.622;2.276;2022-07-09T11:20:32;100339.82;;;28.97;33.87
62592;BME280;48659;41.622;2.276;2022-07-09T11:23:03;100339.67;;;27.95;34.65
62592;BME280;48659;41.622;2.276;2022-07-09T11:25:31;100330.92;;;27.87;34.75
62592;BME280;48659;41.622;2.276;2022-07-09T11:28:00;100331.31;;;27.47;34.87
62592;BME280;48659;41.622;2.276;2022-07-09T11:30:28;100329.44;;;26.87;36.63
62592;BME280;48659;41.622;2.276;2022-07-09T11:32:57;100329.94;;;28.68;34.38
62592;BME280;48659;41.622;2.276;2022-07-09T11:35:27;100324.63;;;28.19;34.22
62592;BME280;48659;41.622;2.276;2022-07-09T11:37:57;100321.80;;;28.86;32.92
62592;BME280;48659;41.622;2.276;2022-07-09T11:40:25;100332.37;;;27.85;34.40
62592;BME280;48659;41.622;2.276;2022-07-09T11:42:52;100331.61;;;28.76;33.43
62592;BME280;48659;41.622;2.276;2022-07-09T11:45:21;100328.60;;;28.30;33.79
62592;BME280;48659;41.622;2.276;2022-07-09T11:47:49;100328.22;;;27.68;34.80
62592;BME280;48659;41.622;2.276;2022-07-09T11:50:18;100328.02;;;28.55;32.94
62592;BME280;48659;41.622;2.276;2022-07-09T11:52:47;100323.61;;;28.33;33.81
62592;BME280;48659;41.622;2.276;2022-07-09T11:55:16;100324.75;;;27.54;34.63
62592;BME280;48659;41.622;2.276;2022-07-09T11:58:07;100322.14;;;27.40;36.10
62592;BME280;48659;41.622;2.276;2022-07-09T12:00:39;100334.84;;;28.30;34.24
62592;BME280;48659;41.622;2.276;2022-07-09T12:03:07;100327.17;;;27.84;34.87
62592;BME280;48659;41.622;2.276;2022-07-09T12:05:36;100322.50;;;27.41;36.53
62592;BME280;48659;41.622;2.276;2022-07-09T12:08:05;100323.55;;;27.53;35.67
62592;BME280;48659;41.622;2.276;2022-07-09T12:10:34;100326.98;;;27.34;35.85
62592;BME280;48659;41.622;2.276;2022-07-09T12:13:04;100322.96;;;28.10;34.28
62592;BME280;48659;41.622;2.276;2022-07-09T12:15:34;100320.93;;;28.23;35.78
62592;BME280;48659;41.622;2.276;2022-07-09T12:18:02;100319.74;;;27.22;35.79
62592;BME280;48659;41.622;2.276;2022-07-09T12:20:32;100315.84;;;27.30;35.29
62592;BME280;48659;41.622;2.276;2022-07-09T12:22:59;100313.40;;;26.66;36.61
62592;BME280;48659;41.622;2.276;2022-07-09T12:25:26;100315.30;;;27.51;36.07
62592;BME280;48659;41.622;2.276;2022-07-09T12:27:56;100322.94;;;27.31;36.64
62592;BME280;48659;41.622;2.276;2022-07-09T12:30:23;100318.06;;;27.95;34.85
62592;BME280;48659;41.622;2.276;2022-07-09T12:32:50;100319.10;;;27.10;35.89
62592;BME280;48659;41.622;2.276;2022-07-09T12:35:18;100311.23;;;28.54;33.26
62592;BME280;48659;41.622;2.276;2022-07-09T12:37:46;100306.92;;;27.83;33.67
62592;BME280;48659;41.622;2.276;2022-07-09T12:40:13;100306.59;;;28.14;33.70
62592;BME280;48659;41.622;2.276;2022-07-09T12:42:41;100308.46;;;27.44;34.60
62592;BME280;48659;41.622;2.276;2022-07-09T12:45:10;100307.71;;;27.37;34.57
62592;BME280;48659;41.622;2.276;2022-07-09T12:47:37;100308.14;;;27.79;34.05
62592;BME280;48659;41.622;2.276;2022-07-09T12:50:06;100303.46;;;28.59;31.94
62592;BME280;48659;41.622;2.276;2022-07-09T12:52:34;100302.49;;;27.24;33.31
62592;BME280;48659;41.622;2.276;2022-07-09T12:55:04;100304.85;;;27.35;33.42